createdAt,value
2018-04-17T00:01:31.436Z,99001.90
2018-04-17T00:03:58.908Z,98999.63
2018-04-17T00:06:26.400Z,98999.88
2018-04-17T00:08:53.887Z,99005.63
2018-04-17T00:11:21.395Z,99003.67
2018-04-17T00:13:49.019Z,99007.32
2018-04-17T00:16:16.503Z,99007.74
2018-04-17T00:18:43.985Z,99015.68
2018-04-17T00:21:11.491Z,99008.47
2018-04-17T00:23:38.955Z,99010.87
2018-04-17T00:26:06.564Z,99008.89
2018-04-17T00:28:34.099Z,99015.38
2018-04-17T00:31:01.762Z,99008.86
2018-04-17T00:33:29.432Z,99009.05
2018-04-17T00:35:57.171Z,99011.51
2018-04-17T00:38:24.899Z,99009.44
2018-04-17T00:40:52.372Z,99012.34
2018-04-17T00:43:19.876Z,99004.05
2018-04-17T00:45:47.348Z,99004.81
2018-04-17T00:48:14.860Z,99008.63
2018-04-17T00:50:42.328Z,99016.11
2018-04-17T00:53:21.702Z,99016.62
2018-04-17T00:55:49.185Z,99015.01
2018-04-17T00:58:16.709Z,99019.48
2018-04-17T01:00:44.342Z,99016.39
2018-04-17T01:03:12.078Z,99015.86
2018-04-17T01:05:39.690Z,99014.34
2018-04-17T01:08:07.558Z,99023.41
2018-04-17T01:10:35.611Z,99025.95
2018-04-17T01:13:03.272Z,99030.57
2018-04-17T01:15:30.772Z,99035.27
2018-04-17T01:17:59.262Z,99035.83
2018-04-17T01:20:27.073Z,99031.57
2018-04-17T01:22:55.160Z,99033.52
2018-04-17T01:25:22.717Z,99030.38
2018-04-17T01:27:50.595Z,99035.63
2018-04-17T01:30:18.302Z,99041.03
2018-04-17T01:32:45.998Z,99033.77
2018-04-17T01:35:13.498Z,99036.20
2018-04-17T01:37:40.995Z,99040.72
2018-04-17T01:40:08.477Z,99039.48
2018-04-17T01:42:35.935Z,99041.98
2018-04-17T01:45:03.453Z,99047.69
2018-04-17T01:47:30.948Z,99047.80
2018-04-17T01:49:58.465Z,99048.70
2018-04-17T01:52:25.956Z,99053.67
2018-04-17T01:54:53.667Z,99055.63
2018-04-17T01:57:21.215Z,99056.39
2018-04-17T01:59:48.791Z,99053.28
2018-04-17T02:02:16.282Z,99054.95
2018-04-17T02:04:43.786Z,99056.71
2018-04-17T02:07:11.289Z,99065.40
2018-04-17T02:09:38.838Z,99054.22
2018-04-17T02:12:06.324Z,99060.98
2018-04-17T02:14:33.865Z,99059.81
2018-04-17T02:17:01.359Z,99060.57
2018-04-17T02:19:28.906Z,99064.84
2018-04-17T02:21:56.501Z,99063.42
2018-04-17T02:24:23.990Z,99067.58
2018-04-17T02:26:51.541Z,99067.30
2018-04-17T02:29:19.045Z,99074.36
2018-04-17T02:31:46.533Z,99069.73
2018-04-17T02:34:14.019Z,99071.58
2018-04-17T02:36:41.488Z,99076.53
2018-04-17T02:39:08.976Z,99071.97
2018-04-17T02:41:36.464Z,99073.95
2018-04-17T02:44:03.979Z,99079.09
2018-04-17T02:46:31.444Z,99075.08
2018-04-17T02:48:59.264Z,99076.70
2018-04-17T02:51:26.862Z,99085.77
2018-04-17T02:53:54.365Z,99085.70
2018-04-17T02:56:21.835Z,99086.07
2018-04-17T02:58:49.325Z,99087.83
2018-04-17T03:01:16.819Z,99091.16
2018-04-17T03:03:44.349Z,99089.81
2018-04-17T03:06:11.972Z,99093.79
2018-04-17T03:08:39.463Z,99099.45
2018-04-17T03:11:06.958Z,99097.76
2018-04-17T03:13:34.451Z,99088.34
2018-04-17T03:16:01.964Z,99098.54
2018-04-17T03:18:29.436Z,99100.78
2018-04-17T03:20:56.927Z,99105.51
2018-04-17T03:23:24.395Z,99099.51
2018-04-17T03:25:51.905Z,99107.13
2018-04-17T03:28:19.403Z,99110.81
2018-04-17T03:30:46.966Z,99104.94
2018-04-17T03:33:14.511Z,99114.27
2018-04-17T03:35:42.019Z,99117.04
2018-04-17T03:38:09.483Z,99110.31
2018-04-17T03:40:37.000Z,99109.91
2018-04-17T03:43:04.476Z,99121.62
2018-04-17T03:45:31.969Z,99123.66
2018-04-17T03:47:59.472Z,99119.27
2018-04-17T03:50:26.967Z,99120.70
2018-04-17T03:52:54.427Z,99118.97
2018-04-17T03:55:21.919Z,99116.82
2018-04-17T03:57:49.382Z,99123.00
2018-04-17T04:00:16.892Z,99123.09
2018-04-17T04:02:44.400Z,99128.06
2018-04-17T04:05:11.842Z,99133.25
2018-04-17T04:07:39.333Z,99133.53
2018-04-17T04:10:06.795Z,99138.25
2018-04-17T04:12:34.343Z,99141.25
2018-04-17T04:15:01.931Z,99151.11
2018-04-17T04:17:41.192Z,99153.20
2018-04-17T04:20:20.683Z,99159.36
2018-04-17T04:23:00.016Z,99164.55
2018-04-17T04:25:52.426Z,99168.55
2018-04-17T04:28:19.893Z,99174.69
2018-04-17T04:30:47.356Z,99178.27
2018-04-17T04:33:14.851Z,99178.41
2018-04-17T04:35:42.429Z,99181.31
2018-04-17T04:38:09.923Z,99182.56
2018-04-17T04:40:37.412Z,99182.69
2018-04-17T04:43:04.944Z,99191.17
2018-04-17T04:45:32.420Z,99196.65
2018-04-17T04:47:59.902Z,99201.98
2018-04-17T04:50:27.443Z,99198.98
2018-04-17T04:52:54.926Z,99203.53
2018-04-17T04:55:22.418Z,99219.45
2018-04-17T04:57:49.940Z,99215.19
2018-04-17T05:00:17.412Z,99224.37
2018-04-17T05:02:44.902Z,99228.72
2018-04-17T05:05:12.375Z,99228.73
2018-04-17T05:07:39.858Z,99233.59
2018-04-17T05:10:07.413Z,99231.83
2018-04-17T05:12:34.900Z,99235.73
2018-04-17T05:15:02.372Z,99233.72
2018-04-17T05:17:29.878Z,99245.09
2018-04-17T05:19:57.424Z,99247.03
2018-04-17T05:22:25.011Z,99251.23
2018-04-17T05:24:52.567Z,99251.93
2018-04-17T05:27:20.057Z,99261.48
2018-04-17T05:29:47.531Z,99266.62
2018-04-17T05:32:15.008Z,99272.38
2018-04-17T05:34:42.500Z,99271.30
2018-04-17T05:37:09.964Z,99274.30
2018-04-17T05:39:37.471Z,99280.12
2018-04-17T05:42:04.943Z,99285.17
2018-04-17T05:44:32.419Z,99288.94
2018-04-17T05:47:00.840Z,99290.22
2018-04-17T05:49:28.332Z,99295.16
2018-04-17T05:51:55.822Z,99297.68
2018-04-17T05:54:23.319Z,99294.09
2018-04-17T05:56:50.796Z,99295.30
2018-04-17T05:59:18.384Z,99294.03
2018-04-17T06:01:45.859Z,99296.33
2018-04-17T06:04:13.355Z,99303.22
2018-04-17T06:06:40.857Z,99300.93
2018-04-17T06:09:08.375Z,99303.75
2018-04-17T06:11:35.908Z,99307.81
2018-04-17T06:14:03.412Z,99309.10
2018-04-17T06:16:30.883Z,99307.75
2018-04-17T06:18:58.383Z,99317.91
2018-04-17T06:21:25.937Z,99322.78
2018-04-17T06:23:53.435Z,99326.16
2018-04-17T06:26:20.932Z,99319.98
2018-04-17T06:28:48.446Z,99331.48
2018-04-17T06:31:15.951Z,99326.00
2018-04-17T06:33:43.471Z,99324.08
2018-04-17T06:36:10.982Z,99332.64
2018-04-17T06:38:38.495Z,99331.59
2018-04-17T06:41:06.043Z,99328.85
2018-04-17T06:43:34.623Z,99326.11
2018-04-17T06:46:02.222Z,99331.20
2018-04-17T06:48:29.730Z,99341.41
2018-04-17T06:50:57.227Z,99335.81
2018-04-17T06:53:24.783Z,99347.73
2018-04-17T06:55:52.285Z,99351.68
2018-04-17T06:58:19.759Z,99355.69
2018-04-17T07:00:48.686Z,99356.56
2018-04-17T07:03:16.193Z,99356.06
2018-04-17T07:05:43.772Z,99359.83
2018-04-17T07:08:11.296Z,99363.66
2018-04-17T07:10:38.796Z,99369.09
2018-04-17T07:13:06.271Z,99374.74
2018-04-17T07:15:33.801Z,99368.53
2018-04-17T07:18:01.279Z,99368.95
2018-04-17T07:20:28.791Z,99371.09
2018-04-17T07:22:56.296Z,99374.06
2018-04-17T07:25:23.787Z,99370.05
2018-04-17T07:27:51.298Z,99369.13
2018-04-17T07:30:18.848Z,99362.92
2018-04-17T07:32:46.335Z,99369.42
2018-04-17T07:35:13.828Z,99372.88
2018-04-17T07:37:41.338Z,99368.93
2018-04-17T07:40:09.015Z,99369.06
2018-04-17T07:42:36.531Z,99375.59
2018-04-17T07:45:04.018Z,99370.34
2018-04-17T07:47:31.501Z,99375.37
2018-04-17T07:49:59.014Z,99374.88
2018-04-17T07:52:26.489Z,99380.07
2018-04-17T07:54:53.990Z,99377.04
2018-04-17T07:57:21.495Z,99376.97
2018-04-17T07:59:49.839Z,99381.43
2018-04-17T08:02:17.686Z,99384.27
2018-04-17T08:04:45.155Z,99390.02
2018-04-17T08:07:12.646Z,99392.02
2018-04-17T08:09:40.147Z,99390.34
2018-04-17T08:12:07.650Z,99389.28
2018-04-17T08:14:35.115Z,99395.97
2018-04-17T08:17:02.607Z,99406.99
2018-04-17T08:19:30.261Z,99408.07
2018-04-17T08:21:57.766Z,99406.64
2018-04-17T08:24:25.425Z,99411.70
2018-04-17T08:26:52.930Z,99413.38
2018-04-17T08:29:20.426Z,99413.86
2018-04-17T08:31:47.948Z,99413.52
2018-04-17T08:34:15.485Z,99416.13
2018-04-17T08:36:42.992Z,99422.52
2018-04-17T08:39:10.488Z,99423.53
2018-04-17T08:41:38.001Z,99426.55
2018-04-17T08:44:06.492Z,99429.18
2018-04-17T08:46:33.987Z,99431.47
2018-04-17T08:49:01.680Z,99433.77
2018-04-17T08:51:29.289Z,99426.84
2018-04-17T08:53:56.868Z,99427.42
2018-04-17T08:56:24.406Z,99432.95
2018-04-17T08:58:51.909Z,99429.37
2018-04-17T09:01:19.423Z,99435.52
2018-04-17T09:03:47.130Z,99435.00
2018-04-17T09:06:14.639Z,99435.25
2018-04-17T09:08:45.037Z,99437.02
2018-04-17T09:11:12.856Z,99430.57
2018-04-17T09:13:40.959Z,99430.73
2018-04-17T09:16:08.483Z,99432.38
2018-04-17T09:18:35.979Z,99435.41
2018-04-17T09:21:03.455Z,99437.63
2018-04-17T09:23:30.938Z,99432.75
2018-04-17T09:25:58.436Z,99437.87
2018-04-17T09:28:25.946Z,99438.39
2018-04-17T09:30:53.526Z,99430.45
2018-04-17T09:33:21.044Z,99437.37
2018-04-17T09:35:48.821Z,99439.95
2018-04-17T09:38:17.898Z,99432.23
2018-04-17T09:40:45.387Z,99435.20
2018-04-17T09:43:15.323Z,99440.35
2018-04-17T09:45:44.696Z,99430.13
2018-04-17T09:48:15.985Z,99434.94
2018-04-17T09:50:47.183Z,99427.55
2018-04-17T09:53:14.868Z,99437.80
2018-04-17T09:55:42.395Z,99440.36
2018-04-17T09:58:09.895Z,99434.27
2018-04-17T10:00:43.168Z,99433.33
2018-04-17T10:03:10.660Z,99437.11
2018-04-17T10:05:38.187Z,99438.84
2018-04-17T10:08:05.690Z,99429.70
2018-04-17T10:10:33.305Z,99432.80
2018-04-17T10:13:00.812Z,99426.25
2018-04-17T10:15:28.282Z,99426.50
2018-04-17T10:17:55.777Z,99424.16
2018-04-17T10:20:23.362Z,99431.73
2018-04-17T10:22:50.843Z,99424.89
2018-04-17T10:25:18.371Z,99424.98
2018-04-17T10:27:45.872Z,99428.93
2018-04-17T10:30:13.403Z,99422.01
2018-04-17T10:32:40.885Z,99426.34
2018-04-17T10:35:08.399Z,99421.30
2018-04-17T10:37:35.911Z,99420.13
2018-04-17T10:40:03.436Z,99421.47
2018-04-17T10:42:30.915Z,99421.92
2018-04-17T10:44:58.501Z,99417.78
2018-04-17T10:47:26.367Z,99425.60
2018-04-17T10:49:53.873Z,99416.73
2018-04-17T10:52:21.339Z,99407.89
2018-04-17T10:54:48.835Z,99418.29
2018-04-17T10:57:16.354Z,99412.28
2018-04-17T10:59:43.862Z,99413.25
2018-04-17T11:02:11.367Z,99409.16
2018-04-17T11:04:38.907Z,99408.63
2018-04-17T11:07:06.399Z,99413.30
2018-04-17T11:09:33.932Z,99411.75
2018-04-17T11:12:01.448Z,99404.63
2018-04-17T11:14:28.954Z,99403.05
2018-04-17T11:16:56.584Z,99404.44
2018-04-17T11:19:24.138Z,99401.45
2018-04-17T11:21:51.697Z,99405.84
2018-04-17T11:24:19.265Z,99400.89
2018-04-17T11:26:46.809Z,99404.20
2018-04-17T11:29:15.424Z,99394.96
2018-04-17T11:31:43.053Z,99402.63
2018-04-17T11:34:10.571Z,99402.19
2018-04-17T11:36:38.116Z,99392.97
2018-04-17T11:39:12.703Z,99394.47
2018-04-17T11:41:40.198Z,99399.56
2018-04-17T11:44:07.751Z,99393.91
2018-04-17T11:46:35.222Z,99397.33
2018-04-17T11:49:02.718Z,99400.93
2018-04-17T11:51:30.207Z,99393.05
2018-04-17T11:53:57.705Z,99394.89
2018-04-17T11:56:25.251Z,99395.89
2018-04-17T11:58:52.736Z,99397.23
2018-04-17T12:01:20.302Z,99385.87
2018-04-17T12:03:47.787Z,99393.44
2018-04-17T12:06:15.288Z,99388.69
2018-04-17T12:08:42.772Z,99384.63
2018-04-17T12:11:10.272Z,99392.19
2018-04-17T12:13:37.744Z,99386.04
2018-04-17T12:16:05.243Z,99387.66
2018-04-17T12:18:32.714Z,99388.65
2018-04-17T12:21:00.223Z,99395.78
2018-04-17T12:23:27.721Z,99388.69
2018-04-17T12:25:55.225Z,99384.45
2018-04-17T12:28:22.703Z,99386.53
2018-04-17T12:30:50.196Z,99389.20
2018-04-17T12:33:17.699Z,99383.34
2018-04-17T12:35:45.191Z,99385.88
2018-04-17T12:38:12.666Z,99379.89
2018-04-17T12:40:40.173Z,99367.15
2018-04-17T12:43:07.685Z,99361.92
2018-04-17T12:45:35.221Z,99365.02
2018-04-17T12:48:02.695Z,99364.20
2018-04-17T12:50:30.216Z,99367.01
2018-04-17T12:52:57.720Z,99361.80
2018-04-17T12:55:25.212Z,99357.93
2018-04-17T12:57:52.688Z,99357.25
2018-04-17T13:00:20.223Z,99359.95
2018-04-17T13:02:47.692Z,99352.09
2018-04-17T13:05:15.183Z,99359.16
2018-04-17T13:07:42.655Z,99358.58
2018-04-17T13:10:10.172Z,99348.57
2018-04-17T13:12:37.646Z,99353.84
2018-04-17T13:15:05.135Z,99342.48
2018-04-17T13:17:32.612Z,99342.88
2018-04-17T13:20:00.112Z,99339.30
2018-04-17T13:22:27.595Z,99340.38
2018-04-17T13:24:55.101Z,99336.17
2018-04-17T13:27:22.641Z,99333.87
2018-04-17T13:29:50.113Z,99328.39
2018-04-17T13:32:17.611Z,99331.77
2018-04-17T13:34:45.090Z,99326.86
2018-04-17T13:37:12.596Z,99313.77
2018-04-17T13:39:40.067Z,99317.08
2018-04-17T13:42:07.555Z,99320.34
2018-04-17T13:44:35.040Z,99315.29
2018-04-17T13:47:02.563Z,99315.53
2018-04-17T13:49:30.135Z,99313.02
2018-04-17T13:51:57.629Z,99311.22
2018-04-17T13:54:25.144Z,99308.98
2018-04-17T13:56:52.640Z,99313.56
2018-04-17T13:59:20.107Z,99307.57
2018-04-17T14:01:47.672Z,99313.27
2018-04-17T14:04:15.102Z,99313.52
2018-04-17T14:06:42.630Z,99308.83
2018-04-17T14:09:10.097Z,99311.00
2018-04-17T14:11:37.599Z,99303.41
2018-04-17T14:14:05.094Z,99298.47
2018-04-17T14:16:32.585Z,99310.13
2018-04-17T14:19:00.064Z,99308.50
2018-04-17T14:21:27.591Z,99298.84
2018-04-17T14:23:55.083Z,99297.00
2018-04-17T14:26:22.784Z,99301.74
2018-04-17T14:28:50.268Z,99309.19
2018-04-17T14:31:17.906Z,99307.28
2018-04-17T14:33:45.380Z,99306.95
2018-04-17T14:36:12.912Z,99295.42
2018-04-17T14:38:40.410Z,99299.94
2018-04-17T14:41:07.928Z,99304.55
2018-04-17T14:43:35.543Z,99296.95
2018-04-17T14:46:03.043Z,99301.78
2018-04-17T14:48:30.536Z,99295.36
2018-04-17T14:50:58.476Z,99299.33
2018-04-17T14:53:26.005Z,99290.09
2018-04-17T14:55:53.663Z,99290.21
2018-04-17T14:58:21.183Z,99300.45
2018-04-17T15:00:48.655Z,99288.28
2018-04-17T15:03:16.167Z,99291.91
2018-04-17T15:05:43.633Z,99288.56
2018-04-17T15:08:11.146Z,99289.63
2018-04-17T15:10:38.643Z,99289.12
2018-04-17T15:13:06.134Z,99288.36
2018-04-17T15:15:33.826Z,99287.95
2018-04-17T15:18:01.351Z,99294.49
2018-04-17T15:20:28.821Z,99292.90
2018-04-17T15:22:56.419Z,99283.82
2018-04-17T15:25:23.925Z,99278.27
2018-04-17T15:27:51.431Z,99277.08
2018-04-17T15:30:18.936Z,99284.84
2018-04-17T15:32:46.558Z,99286.19
2018-04-17T15:35:14.025Z,99285.81
2018-04-17T15:37:41.568Z,99295.42
2018-04-17T15:40:09.049Z,99288.80
2018-04-17T15:42:36.563Z,99291.28
2018-04-17T15:45:04.047Z,99287.91
2018-04-17T15:47:31.543Z,99289.19
2018-04-17T15:49:59.048Z,99284.64
2018-04-17T15:52:26.546Z,99295.47
2018-04-17T15:54:54.015Z,99294.52
2018-04-17T15:57:22.611Z,99297.07
2018-04-17T15:59:50.103Z,99307.50
2018-04-17T16:02:17.631Z,99310.31
2018-04-17T16:04:45.104Z,99308.83
2018-04-17T16:07:12.651Z,99307.59
2018-04-17T16:09:40.158Z,99309.87
2018-04-17T16:12:07.658Z,99309.52
2018-04-17T16:14:35.140Z,99314.35
2018-04-17T16:17:02.683Z,99313.84
2018-04-17T16:19:30.160Z,99322.15
2018-04-17T16:21:57.979Z,99319.27
2018-04-17T16:24:25.449Z,99318.90
2018-04-17T16:26:52.915Z,99323.37
2018-04-17T16:29:20.465Z,99316.97
2018-04-17T16:31:47.952Z,99318.03
2018-04-17T16:34:15.444Z,99315.03
2018-04-17T16:36:42.972Z,99314.49
2018-04-17T16:39:10.467Z,99321.59
2018-04-17T16:41:38.004Z,99323.09
2018-04-17T16:44:05.495Z,99314.98
2018-04-17T16:46:35.640Z,99316.09
2018-04-17T16:49:03.227Z,99310.80
2018-04-17T16:51:30.707Z,99317.99
2018-04-17T16:53:58.308Z,99319.97
2018-04-17T16:56:25.801Z,99322.31
2018-04-17T16:58:53.355Z,99321.70
2018-04-17T17:01:20.828Z,99317.66
2018-04-17T17:03:48.558Z,99313.53
2018-04-17T17:06:16.033Z,99323.47
2018-04-17T17:08:43.533Z,99321.95
2018-04-17T17:11:11.001Z,99317.41
2018-04-17T17:13:38.503Z,99324.06
2018-04-17T17:16:05.971Z,99324.66
2018-04-17T17:18:33.464Z,99331.00
2018-04-17T17:21:00.975Z,99329.95
2018-04-17T17:23:28.487Z,99335.50
2018-04-17T17:25:55.983Z,99339.28
2018-04-17T17:28:23.612Z,99341.20
2018-04-17T17:30:51.093Z,99339.55
2018-04-17T17:33:18.607Z,99343.62
2018-04-17T17:35:46.092Z,99349.97
2018-04-17T17:38:13.624Z,99348.17
2018-04-17T17:40:41.101Z,99346.33
2018-04-17T17:43:08.663Z,99349.97
2018-04-17T17:45:36.308Z,99355.41
2018-04-17T17:48:03.859Z,99365.66
2018-04-17T17:50:31.319Z,99359.30
2018-04-17T17:52:58.843Z,99365.58
2018-04-17T17:55:26.340Z,99366.95
2018-04-17T17:57:53.849Z,99374.98
2018-04-17T18:00:21.320Z,99379.28
2018-04-17T18:02:48.786Z,99382.30
2018-04-17T18:05:16.284Z,99386.75
2018-04-17T18:07:43.751Z,99387.19
2018-04-17T18:10:11.257Z,99393.11
2018-04-17T18:12:38.739Z,99398.14
2018-04-17T18:15:06.247Z,99397.77
2018-04-17T18:17:33.751Z,99407.64
2018-04-17T18:20:01.248Z,99407.36
2018-04-17T18:22:28.719Z,99414.53
2018-04-17T18:24:56.336Z,99414.92
2018-04-17T18:27:23.905Z,99428.36
2018-04-17T18:29:51.685Z,99429.78
2018-04-17T18:32:19.166Z,99435.41
2018-04-17T18:34:46.703Z,99439.64
2018-04-17T18:37:14.179Z,99444.74
2018-04-17T18:39:41.685Z,99444.32
2018-04-17T18:42:09.376Z,99450.25
2018-04-17T18:44:36.903Z,99451.53
2018-04-17T18:47:04.398Z,99452.00
2018-04-17T18:49:31.994Z,99455.63
2018-04-17T18:51:59.475Z,99463.91
2018-04-17T18:54:26.967Z,99468.30
2018-04-17T18:56:54.447Z,99468.48
2018-04-17T18:59:21.993Z,99473.77
2018-04-17T19:01:49.524Z,99473.09
2018-04-17T19:04:17.027Z,99476.91
2018-04-17T19:06:44.510Z,99484.16
2018-04-17T19:09:12.003Z,99486.17
2018-04-17T19:11:39.483Z,99488.45
2018-04-17T19:14:07.052Z,99492.59
2018-04-17T19:16:34.525Z,99500.94
2018-04-17T19:19:02.027Z,99504.05
2018-04-17T19:21:29.540Z,99507.78
2018-04-17T19:23:57.180Z,99506.67
2018-04-17T19:26:24.763Z,99507.75
2018-04-17T19:28:52.253Z,99514.07
2018-04-17T19:31:19.768Z,99520.35
2018-04-17T19:33:47.247Z,99514.56
2018-04-17T19:36:14.744Z,99516.05
2018-04-17T19:38:42.211Z,99519.98
2018-04-17T19:41:09.727Z,99521.22
2018-04-17T19:43:37.704Z,99525.86
2018-04-17T19:46:05.195Z,99523.17
2018-04-17T19:48:32.659Z,99530.36
2018-04-17T19:51:00.234Z,99527.17
2018-04-17T19:53:27.764Z,99537.10
2018-04-17T19:55:55.264Z,99536.25
2018-04-17T19:58:22.790Z,99536.02
2018-04-17T20:00:50.391Z,99539.91
2018-04-17T20:03:17.916Z,99546.42
2018-04-17T20:05:45.407Z,99553.49
2018-04-17T20:08:12.953Z,99542.32
2018-04-17T20:10:40.447Z,99542.36
2018-04-17T20:13:07.943Z,99548.45
2018-04-17T20:15:35.435Z,99556.00
2018-04-17T20:18:02.925Z,99553.42
2018-04-17T20:20:30.452Z,99560.48
2018-04-17T20:22:57.939Z,99561.55
2018-04-17T20:25:25.454Z,99559.98
2018-04-17T20:27:52.989Z,99563.58
2018-04-17T20:30:20.480Z,99561.30
2018-04-17T20:32:48.040Z,99566.70
2018-04-17T20:35:15.539Z,99567.00
2018-04-17T20:37:43.016Z,99562.02
2018-04-17T20:40:10.509Z,99566.13
2018-04-17T20:42:38.052Z,99567.81
2018-04-17T20:45:05.634Z,99563.53
2018-04-17T20:47:33.121Z,99569.47
2018-04-17T20:50:00.615Z,99564.77
2018-04-17T20:52:28.115Z,99570.95
2018-04-17T20:54:55.601Z,99569.92
2018-04-17T20:57:23.107Z,99572.27
2018-04-17T20:59:50.583Z,99570.18
2018-04-17T21:02:18.085Z,99568.98
2018-04-17T21:04:45.552Z,99571.84
2018-04-17T21:07:13.056Z,99569.01
2018-04-17T21:09:40.526Z,99568.30
2018-04-17T21:12:08.148Z,99577.70
2018-04-17T21:14:36.733Z,99573.44
2018-04-17T21:17:04.228Z,99576.21
2018-04-17T21:19:31.707Z,99574.17
2018-04-17T21:21:59.311Z,99573.84
2018-04-17T21:24:26.826Z,99577.22
2018-04-17T21:26:55.254Z,99578.67
2018-04-17T21:29:22.896Z,99576.74
2018-04-17T21:31:50.467Z,99573.59
2018-04-17T21:34:17.947Z,99570.22
2018-04-17T21:36:45.476Z,99572.34
2018-04-17T21:39:12.959Z,99577.33
2018-04-17T21:41:40.467Z,99578.91
2018-04-17T21:44:07.931Z,99580.17
2018-04-17T21:46:35.426Z,99579.73
2018-04-17T21:49:03.618Z,99580.14
2018-04-17T21:51:31.205Z,99579.88
2018-04-17T21:53:58.743Z,99582.58
2018-04-17T21:56:26.240Z,99581.28
2018-04-17T21:58:53.938Z,99578.30
2018-04-17T22:01:36.353Z,99583.63
2018-04-17T22:04:04.158Z,99588.07
2018-04-17T22:06:31.641Z,99592.78
2018-04-17T22:08:59.170Z,99595.07
2018-04-17T22:11:26.697Z,99593.66
2018-04-17T22:13:54.167Z,99594.50
2018-04-17T22:16:21.655Z,99597.91
2018-04-17T22:18:49.162Z,99596.00
2018-04-17T22:21:16.799Z,99592.46
2018-04-17T22:23:44.324Z,99596.44
2018-04-17T22:26:11.842Z,99599.34
2018-04-17T22:28:39.315Z,99601.60
2018-04-17T22:31:06.807Z,99604.36
2018-04-17T22:33:34.287Z,99603.92
2018-04-17T22:36:01.779Z,99606.60
2018-04-17T22:38:29.267Z,99603.59
2018-04-17T22:40:56.760Z,99603.23
2018-04-17T22:43:24.251Z,99609.16
2018-04-17T22:45:51.719Z,99611.20
2018-04-17T22:48:19.203Z,99612.16
2018-04-17T22:50:46.667Z,99616.45
2018-04-17T22:53:14.184Z,99622.50
2018-04-17T22:55:41.659Z,99619.30
2018-04-17T22:58:09.151Z,99624.89
2018-04-17T23:00:36.663Z,99626.72
2018-04-17T23:03:04.196Z,99632.78
2018-04-17T23:05:31.663Z,99633.77
2018-04-17T23:07:59.562Z,99634.21
2018-04-17T23:10:27.101Z,99635.92
2018-04-17T23:12:54.660Z,99640.45
2018-04-17T23:15:22.128Z,99649.36
2018-04-17T23:17:49.621Z,99650.59
2018-04-17T23:20:17.114Z,99650.84
2018-04-17T23:22:44.603Z,99657.36
2018-04-17T23:25:12.068Z,99662.36
2018-04-17T23:27:39.562Z,99664.33
2018-04-17T23:30:07.087Z,99663.02
2018-04-17T23:32:34.586Z,99673.42
2018-04-17T23:35:02.088Z,99664.86
2018-04-17T23:37:29.791Z,99671.51
2018-04-17T23:39:57.350Z,99673.95
2018-04-17T23:42:24.862Z,99672.42
2018-04-17T23:44:52.471Z,99670.27
2018-04-17T23:47:20.004Z,99675.85
2018-04-17T23:49:47.551Z,99672.77
2018-04-17T23:52:15.051Z,99673.20
2018-04-17T23:54:42.519Z,99666.63
2018-04-17T23:57:10.009Z,99671.45
2018-04-17T23:59:37.507Z,99670.19
